Pagrindinis puslapis
METAR-TAF:

METAR-TAF

Oro uostai :

Kuenka, Ekvadoras

platuma: 02-53-22S, ilguma: 078-59-04W, Aukštis: 2532 m

Dabartinis oras

Ataskaita buvo paskelbta 35 minutes, ne 14:00 UTC
Vėjas 3 kt iš Pietų/Pietvakarių
Temperatūra 15°C
Drėgmė 77%
Slėgis 1027 hPa
Matomumas 10 km arba daugiau
Su prošvaistėmis ne aukštis 3300 ft

METAR: SECU 201400Z 20003KT 9999 BKN033 15/11 Q1027

Laikas: 09:35 (14:35 UTC)


TAF: trūkstamas

Orai ataskaitas ir orų prognozės (METAR, TAF).

turimą stotys yra geltonos ir raudonos taškus žemėlapyje.

Perkelti pele per norėdami pamatyti stoties vardą.

Tada spustelėkite, norėdami matyti oro stebėjimo ir prognozės.

Norėdami pakeisti žemėlapį: spustelėkite ant žalios mygtukų su juodo kryžiaus žemyn,; žalią mygtuką su brūkšneliu, jei norite nutolinti; arba žalių rodyklių gretimoms žemėlapius.


METAR-TAF: